Time;durP1;ratioP1;P1;durP2;ratioP2;P2;SDS_P1;SDS_P2;PMS_P1;PMS_P2;Temp;Humidity;BMP_temperature;BMP_pressure;BME280_temperature;BME280_humidity;BME280_pressure;Samples;Min_cycle;Max_cycle;Signal;HPM_P1;HPM_P2
2023/09/24 00:01:42;;;;;;;;;25.33;25.33;;;;;-147.14;100.00;58812.66;5095373;27;46306;-47
2023/09/24 00:04:07;;;;;;;;;24.00;22.67;;;;;-147.14;100.00;58812.66;5090814;27;70992;-46
2023/09/24 00:06:33;;;;;;;;;25.67;23.00;;;;;-147.14;100.00;58812.66;5083660;27;45711;-48
2023/09/24 00:08:58;;;;;;;;;20.33;20.33;;;;;-147.14;100.00;58812.66;5089741;27;67599;-47
2023/09/24 00:11:25;;;;;;;;;31.33;23.67;;;;;-147.14;100.00;58812.66;5092536;27;70926;-47
2023/09/24 00:13:50;;;;;;;;;23.67;20.33;;;;;-147.14;100.00;58812.66;5095116;27;45386;-46
2023/09/24 00:16:16;;;;;;;;;28.00;24.00;;;;;-147.14;100.00;58812.66;5088014;27;50555;-47
2023/09/24 00:18:41;;;;;;;;;26.00;24.33;;;;;-147.14;100.00;58812.66;5081894;27;70146;-47
2023/09/24 00:21:06;;;;;;;;;24.33;21.67;;;;;-147.14;100.00;58812.66;5078369;27;69566;-45
2023/09/24 00:23:32;;;;;;;;;23.00;21.00;;;;;-147.14;100.00;58812.66;5080846;27;45360;-47
2023/09/24 00:25:58;;;;;;;;;22.67;20.00;;;;;-147.14;100.00;58812.66;5079118;28;45580;-48
2023/09/24 00:28:23;;;;;;;;;21.33;20.33;;;;;-147.14;100.00;58812.66;5093806;27;45414;-46
2023/09/24 00:30:50;;;;;;;;;22.33;21.33;;;;;-147.14;100.00;58812.66;5082866;27;46056;-45
2023/09/24 00:33:16;;;;;;;;;21.33;19.00;;;;;-147.14;100.00;58812.66;5078063;27;45563;-44
2023/09/24 00:35:42;;;;;;;;;22.67;21.33;;;;;-147.14;100.00;58812.66;5094830;27;46060;-46
2023/09/24 00:38:08;;;;;;;;;18.33;18.33;;;;;-147.14;100.00;58812.66;5085890;27;45219;-44
2023/09/24 00:40:33;;;;;;;;;25.67;20.00;;;;;-147.14;100.00;58812.66;5081354;27;45276;-47
2023/09/24 00:42:58;;;;;;;;;22.00;19.33;;;;;-147.14;100.00;58812.66;5078842;27;58259;-45
2023/09/24 00:45:26;;;;;;;;;25.67;24.67;;;;;-147.14;100.00;58812.66;5082545;27;45547;-45
2023/09/24 00:47:53;;;;;;;;;20.33;19.67;;;;;-147.14;100.00;58812.66;5087101;27;45455;-45
2023/09/24 00:50:20;;;;;;;;;24.33;21.67;;;;;-147.14;100.00;58812.66;5064632;28;45403;-47
2023/09/24 00:52:46;;;;;;;;;22.00;21.00;;;;;-147.14;100.00;58812.66;5087112;27;45635;-45
2023/09/24 00:55:13;;;;;;;;;21.00;21.00;;;;;-147.14;100.00;58812.66;5068488;27;46889;-48
2023/09/24 00:57:40;;;;;;;;;23.00;21.67;;;;;-147.14;100.00;58812.66;5084358;27;45273;-45
2023/09/24 01:00:14;;;;;;;;;23.33;19.67;;;;;-147.14;100.00;58812.66;5068210;27;45573;-47
2023/09/24 01:02:39;;;;;;;;;25.33;24.00;;;;;-147.14;100.00;58812.66;5096156;27;45394;-48
2023/09/24 01:05:05;;;;;;;;;24.00;23.00;;;;;-147.14;100.00;58812.66;5068281;27;46697;-48
2023/09/24 01:07:31;;;;;;;;;21.33;21.33;;;;;-147.14;100.00;58812.66;5077487;27;45516;-46
2023/09/24 01:09:58;;;;;;;;;22.67;19.00;;;;;-147.14;100.00;58812.66;5095490;27;45511;-47
2023/09/24 01:12:25;;;;;;;;;23.67;22.00;;;;;-147.14;100.00;58812.66;5098960;27;45761;-44
2023/09/24 01:14:53;;;;;;;;;19.33;17.67;;;;;-147.14;100.00;58812.66;5095200;27;45284;-45
2023/09/24 01:17:20;;;;;;;;;18.00;18.00;;;;;-147.14;100.00;58812.66;5087545;27;45493;-44
2023/09/24 01:19:46;;;;;;;;;21.33;20.00;;;;;-147.14;100.00;58812.66;5088340;27;46161;-46
2023/09/24 01:22:11;;;;;;;;;21.00;21.00;;;;;-147.14;100.00;58812.66;5092922;27;45542;-46
2023/09/24 01:24:37;;;;;;;;;22.33;20.33;;;;;-147.14;100.00;58812.66;5093092;27;45362;-47
2023/09/24 01:27:02;;;;;;;;;23.33;20.33;;;;;-147.14;100.00;58812.66;5095162;27;64992;-46
2023/09/24 01:29:27;;;;;;;;;23.00;20.00;;;;;-147.14;100.00;58812.66;5090088;27;67080;-46
2023/09/24 01:31:54;;;;;;;;;22.33;21.00;;;;;-147.14;100.00;58812.66;5092931;27;45284;-46
2023/09/24 01:34:19;;;;;;;;;25.00;24.33;;;;;-147.14;100.00;58812.66;5095162;27;45338;-45
2023/09/24 01:36:45;;;;;;;;;23.50;23.00;;;;;-147.14;100.00;58812.66;5089058;27;45403;-45
2023/09/24 01:39:15;;;;;;;;;26.33;21.00;;;;;-147.14;100.00;58812.66;5098295;27;45537;-48
2023/09/24 01:41:41;;;;;;;;;22.00;17.00;;;;;-147.14;100.00;58812.66;5091721;27;45417;-44
2023/09/24 01:44:06;;;;;;;;;18.67;18.67;;;;;-147.14;100.00;58812.66;5096895;27;45482;-46
2023/09/24 01:46:32;;;;;;;;;15.33;14.67;;;;;-147.14;100.00;58812.66;5068018;27;45430;-46
2023/09/24 01:48:59;;;;;;;;;22.33;18.67;;;;;-147.14;100.00;58812.66;5091601;27;45638;-45
2023/09/24 01:51:24;;;;;;;;;18.33;16.00;;;;;-147.14;100.00;58812.66;5092500;27;45484;-45
2023/09/24 01:53:50;;;;;;;;;22.67;19.33;;;;;-147.14;100.00;58812.66;5087900;27;60780;-45
2023/09/24 01:56:18;;;;;;;;;21.67;18.67;;;;;-147.14;100.00;58812.66;5091548;27;45296;-46
2023/09/24 01:58:43;;;;;;;;;20.67;17.33;;;;;-147.14;100.00;58812.66;5089211;27;46047;-45
2023/09/24 02:01:09;;;;;;;;;18.33;18.33;;;;;-147.14;100.00;58812.66;5095624;27;45389;-46
2023/09/24 02:03:35;;;;;;;;;16.00;13.00;;;;;-147.14;100.00;58812.66;5081964;27;45378;-46
2023/09/24 02:06:01;;;;;;;;;15.00;15.00;;;;;-147.14;100.00;58812.66;5091045;27;45297;-46
2023/09/24 02:08:26;;;;;;;;;20.33;16.00;;;;;-147.14;100.00;58812.66;5079936;27;65816;-46
2023/09/24 02:10:52;;;;;;;;;18.67;16.00;;;;;-147.14;100.00;58812.66;5091982;27;45354;-45
2023/09/24 02:13:20;;;;;;;;;19.67;17.33;;;;;-147.14;100.00;58812.66;5098731;27;45348;-45
2023/09/24 02:15:48;;;;;;;;;24.00;19.33;;;;;-147.14;100.00;58812.66;5090410;27;45291;-45
2023/09/24 02:18:13;;;;;;;;;15.67;15.67;;;;;-147.14;100.00;58812.66;5088179;27;46048;-49
2023/09/24 02:20:41;;;;;;;;;19.67;16.67;;;;;-147.14;100.00;58812.66;5093480;27;72118;-45
2023/09/24 02:23:07;;;;;;;;;18.67;18.33;;;;;-147.14;100.00;58812.66;5078724;27;45356;-45
2023/09/24 02:25:35;;;;;;;;;21.67;16.33;;;;;-147.14;100.00;58812.66;5097410;27;45537;-44
2023/09/24 02:28:01;;;;;;;;;28.67;19.00;;;;;-147.14;100.00;58812.66;5085411;27;46181;-48
2023/09/24 02:30:29;;;;;;;;;18.67;15.67;;;;;-147.14;100.00;58812.66;5096541;27;45730;-46
2023/09/24 02:32:55;;;;;;;;;18.67;17.33;;;;;-147.14;100.00;58812.66;5085431;27;45679;-44
2023/09/24 02:35:20;;;;;;;;;18.33;16.67;;;;;-147.14;100.00;58812.66;5092430;27;45557;-46
2023/09/24 02:37:52;;;;;;;;;20.00;17.67;;;;;-147.14;100.00;58812.66;5085199;27;74925;-45
2023/09/24 02:40:28;;;;;;;;;18.67;17.67;;;;;-147.14;100.00;58812.66;5096022;27;45379;-46
2023/09/24 02:42:57;;;;;;;;;16.67;16.00;;;;;-147.14;100.00;58812.66;5088699;27;45413;-46
2023/09/24 02:45:23;;;;;;;;;21.67;17.33;;;;;-147.14;100.00;58812.66;5080212;27;45419;-47
2023/09/24 02:47:49;;;;;;;;;15.33;14.67;;;;;-147.14;100.00;58812.66;5096371;27;45753;-48
2023/09/24 02:50:15;;;;;;;;;17.00;17.00;;;;;-147.14;100.00;58812.66;5093520;27;45458;-47
2023/09/24 02:52:41;;;;;;;;;18.67;17.67;;;;;-147.14;100.00;58812.66;5092627;27;45687;-45
2023/09/24 02:55:08;;;;;;;;;20.33;16.67;;;;;-147.14;100.00;58812.66;5089233;27;45386;-45
2023/09/24 02:57:33;;;;;;;;;13.00;11.67;;;;;-147.14;100.00;58812.66;5097967;27;45939;-46
2023/09/24 02:59:59;;;;;;;;;22.00;20.67;;;;;-147.14;100.00;58812.66;5097444;27;45698;-46
2023/09/24 03:02:28;;;;;;;;;15.67;15.33;;;;;-147.14;100.00;58812.66;5067179;27;66091;-44
2023/09/24 03:04:53;;;;;;;;;21.33;19.00;;;;;-147.14;100.00;58812.66;5081865;27;45366;-46
2023/09/24 03:07:19;;;;;;;;;23.33;19.00;;;;;-147.14;100.00;58812.66;5094545;27;47078;-45
2023/09/24 03:09:45;;;;;;;;;20.00;16.33;;;;;-147.14;100.00;58812.66;5070678;27;45544;-46
2023/09/24 03:12:11;;;;;;;;;20.67;18.00;;;;;-147.14;100.00;58812.66;5090399;27;66899;-47
2023/09/24 03:14:37;;;;;;;;;18.33;18.33;;;;;-147.14;100.00;58812.66;5098422;27;45605;-45
2023/09/24 03:17:02;;;;;;;;;21.67;19.67;;;;;-147.14;100.00;58812.66;5089227;27;72215;-45
2023/09/24 03:19:28;;;;;;;;;18.67;17.00;;;;;-147.14;100.00;58812.66;5086792;27;45515;-46
2023/09/24 03:21:54;;;;;;;;;21.67;18.67;;;;;-147.14;100.00;58812.66;5099369;27;45700;-44
2023/09/24 03:24:20;;;;;;;;;20.33;18.00;;;;;-147.14;100.00;58812.66;5092972;27;45813;-48
2023/09/24 03:26:45;;;;;;;;;19.00;14.33;;;;;-147.14;100.00;58812.66;5099551;27;54699;-45
2023/09/24 03:29:10;;;;;;;;;14.33;13.00;;;;;-147.14;100.00;58812.66;5094666;27;50432;-48
2023/09/24 03:31:45;;;;;;;;;26.00;20.67;;;;;;;;5080327;27;45368;-44
2023/09/24 03:34:10;;;;;;;;;18.00;16.00;;;;;;;;5074005;27;45584;-47
2023/09/24 03:36:37;;;;;;;;;22.67;19.33;;;;;;;;5079866;27;45356;-48
2023/09/24 03:39:03;;;;;;;;;18.33;16.33;;;;;;;;5073466;27;45195;-45
2023/09/24 03:41:28;;;;;;;;;20.00;17.67;;;;;;;;5083241;27;45456;-45
2023/09/24 03:43:53;;;;;;;;;20.67;19.67;;;;;;;;5076935;27;45497;-44
2023/09/24 03:46:18;;;;;;;;;20.67;20.67;;;;;;;;5080639;27;45321;-45
2023/09/24 03:48:43;;;;;;;;;22.00;20.67;;;;;;;;5078320;27;45303;-44
2023/09/24 03:51:10;;;;;;;;;19.00;19.00;;;;;;;;5081308;27;45478;-45
2023/09/24 03:53:35;;;;;;;;;19.33;17.67;;;;;;;;5073371;27;45347;-45
2023/09/24 03:56:00;;;;;;;;;19.33;16.67;;;;;;;;5077168;27;45575;-45
2023/09/24 03:58:26;;;;;;;;;22.00;19.67;;;;;;;;5074757;27;45629;-45
2023/09/24 04:00:51;;;;;;;;;24.00;21.67;;;;;;;;5072929;27;46306;-45
2023/09/24 04:03:16;;;;;;;;;22.33;20.00;;;;;;;;5073138;27;45495;-46
2023/09/24 04:05:41;;;;;;;;;21.33;17.67;;;;;;;;5074988;27;45339;-48
2023/09/24 04:08:07;;;;;;;;;27.33;19.33;;;;;;;;5075194;28;45315;-48
2023/09/24 04:10:32;;;;;;;;;23.67;21.00;;;;;;;;5071401;27;46296;-47
2023/09/24 04:12:59;;;;;;;;;24.33;22.67;;;;;;;;5075597;27;45693;-49
2023/09/24 04:15:27;;;;;;;;;18.33;18.33;;;;;;;;5073013;27;46367;-48
2023/09/24 04:17:52;;;;;;;;;22.67;20.33;;;;;;;;5076827;27;45574;-46
2023/09/24 04:20:20;;;;;;;;;24.67;20.67;;;;;;;;5088125;27;46775;-46
2023/09/24 04:22:45;;;;;;;;;21.00;19.00;;;;;;;;5072082;27;45626;-46
2023/09/24 04:25:14;;;;;;;;;24.67;17.67;;;;;;;;5087381;27;45321;-46
2023/09/24 04:27:39;;;;;;;;;17.33;17.33;;;;;;;;5078687;27;45358;-49
2023/09/24 04:30:08;;;;;;;;;18.67;18.00;;;;;;;;5086455;27;46178;-45
2023/09/24 04:32:33;;;;;;;;;19.00;15.33;;;;;;;;5091373;27;45219;-48
2023/09/24 04:34:59;;;;;;;;;21.33;20.33;;;;;;;;5093532;27;45674;-44
2023/09/24 04:37:26;;;;;;;;;22.00;21.00;;;;;;;;5080631;27;45351;-46
2023/09/24 04:39:51;;;;;;;;;17.67;17.67;;;;;;;;5082155;27;45398;-49
2023/09/24 04:42:16;;;;;;;;;22.67;21.00;;;;;;;;5088382;27;45288;-49
2023/09/24 04:44:42;;;;;;;;;19.00;17.33;;;;;;;;5065843;27;47608;-45
2023/09/24 04:47:07;;;;;;;;;20.33;17.67;;;;;;;;5083320;27;45322;-45
2023/09/24 04:49:32;;;;;;;;;18.00;17.00;;;;;;;;5085446;27;46186;-46
2023/09/24 04:51:57;;;;;;;;;21.67;18.33;;;;;;;;5077708;27;45528;-45
2023/09/24 04:54:23;;;;;;;;;17.33;15.33;;;;;;;;5077937;27;45544;-46
2023/09/24 04:56:49;;;;;;;;;22.00;19.00;;;;;;;;5080814;27;45303;-46
2023/09/24 04:59:14;;;;;;;;;18.00;15.67;;;;;;;;5080840;28;46066;-50
2023/09/24 05:01:40;;;;;;;;;19.00;19.00;;;;;;;;5079612;27;45288;-45
2023/09/24 05:04:05;;;;;;;;;16.67;16.33;;;;;;;;5079592;27;45425;-45
2023/09/24 05:06:32;;;;;;;;;21.00;17.33;;;;;;;;5079272;27;45557;-45
2023/09/24 05:08:57;;;;;;;;;19.00;16.33;;;;;;;;5075900;27;46145;-46
2023/09/24 05:11:22;;;;;;;;;21.00;16.33;;;;;;;;5080215;28;45599;-46
2023/09/24 05:13:47;;;;;;;;;14.33;13.00;;;;;;;;5080031;27;45353;-47
2023/09/24 05:16:12;;;;;;;;;19.33;16.67;;;;;;;;5077809;27;45573;-47
2023/09/24 05:18:38;;;;;;;;;18.33;16.33;;;;;;;;5080443;28;46188;-45
2023/09/24 05:21:03;;;;;;;;;20.67;18.00;;;;;;;;5079886;27;45302;-47
2023/09/24 05:23:29;;;;;;;;;10.33;10.33;;;;;;;;5079728;27;45492;-45
2023/09/24 05:25:54;;;;;;;;;20.67;15.67;;;;;;;;5080231;27;45721;-47
2023/09/24 05:28:19;;;;;;;;;18.00;15.00;;;;;;;;5079551;27;46196;-49
2023/09/24 05:30:51;;;;;;;;;18.33;16.00;;;;;;;;5079946;27;45426;-46
2023/09/24 05:33:16;;;;;;;;;16.00;16.00;;;;;;;;5079456;27;45553;-46
2023/09/24 05:35:42;;;;;;;;;15.33;15.00;;;;;;;;5088400;27;45450;-46
2023/09/24 05:38:07;;;;;;;;;22.00;16.33;;;;;;;;5079793;27;46190;-48
2023/09/24 05:40:38;;;;;;;;;16.33;15.00;;;;;;;;5083421;27;45217;-47
2023/09/24 05:43:03;;;;;;;;;18.33;17.00;;;;;;;;5081732;27;45626;-48
2023/09/24 05:45:28;;;;;;;;;16.67;16.67;;;;;;;;5079159;27;45479;-47
2023/09/24 05:47:53;;;;;;;;;22.67;17.00;;;;;;;;5084420;27;46834;-46
2023/09/24 05:50:19;;;;;;;;;13.67;13.67;;;;;;;;5080816;27;45291;-49
2023/09/24 05:52:44;;;;;;;;;15.00;13.00;;;;;;;;5084334;27;45920;-45
2023/09/24 05:55:09;;;;;;;;;16.67;16.67;;;;;;;;5078969;27;46976;-46
2023/09/24 05:57:35;;;;;;;;;14.00;14.00;;;;;;;;5082593;27;46426;-47
2023/09/24 06:00:03;;;;;;;;;14.00;13.33;;;;;;;;5078423;27;45518;-46
2023/09/24 06:02:28;;;;;;;;;19.00;18.00;;;;;;;;5078397;27;45425;-45
2023/09/24 06:04:53;;;;;;;;;14.33;12.67;;;;;;;;5062162;28;45544;-48
2023/09/24 06:07:19;;;;;;;;;18.33;17.00;;;;;;;;5078467;27;45525;-45
2023/09/24 06:09:44;;;;;;;;;12.33;12.33;;;;;;;;5078967;27;45321;-44
2023/09/24 06:12:09;;;;;;;;;15.67;14.33;;;;;;;;5079491;27;45492;-48
2023/09/24 06:14:34;;;;;;;;;15.33;14.00;;;;;;;;5062114;28;45285;-46
2023/09/24 06:16:59;;;;;;;;;19.00;17.33;;;;;;;;5077681;27;46100;-48
2023/09/24 06:19:25;;;;;;;;;16.67;14.67;;;;;;;;5072273;27;45271;-46
2023/09/24 06:21:50;;;;;;;;;16.67;14.00;;;;;;;;5089245;27;45421;-48
2023/09/24 06:24:16;;;;;;;;;15.33;12.33;;;;;;;;5075216;27;45535;-46
2023/09/24 06:26:42;;;;;;;;;17.33;15.33;;;;;;;;5077043;27;45985;-46
2023/09/24 06:29:08;;;;;;;;;14.00;12.00;;;;;;;;5074958;27;45716;-49
2023/09/24 06:31:33;;;;;;;;;6.00;4.00;;;;;;;;5075337;27;46211;-47
2023/09/24 06:33:59;;;;;;;;;13.33;12.33;;;;;;;;5075834;27;45472;-46
2023/09/24 06:36:24;;;;;;;;;12.00;10.67;;;;;;;;5074762;27;45699;-50
2023/09/24 06:38:49;;;;;;;;;13.67;13.00;;;;;;;;5079927;27;45418;-50
2023/09/24 06:41:14;;;;;;;;;13.33;11.33;;;;;;;;5074870;27;45480;-50
2023/09/24 06:43:39;;;;;;;;;15.67;11.00;;;;;;;;5060231;28;45354;-49
2023/09/24 06:46:05;;;;;;;;;12.67;11.00;;;;;;;;5076820;28;46205;-48
2023/09/24 06:48:30;;;;;;;;;10.67;7.00;;;;;;;;5070951;27;45395;-49
2023/09/24 06:51:04;;;;;;;;;13.67;12.33;;;;;;;;5080359;27;45380;-50
2023/09/24 06:53:29;;;;;;;;;13.67;12.00;;;;;;;;5077614;27;45750;-50
2023/09/24 06:55:57;;;;;;;;;15.67;12.33;;;;;;;;5079153;28;46031;-48
2023/09/24 06:58:22;;;;;;;;;12.33;12.33;;;;;;;;5069392;27;45382;-47
2023/09/24 07:00:47;;;;;;;;;12.67;12.00;;;;;;;;5077197;27;45420;-49
2023/09/24 07:03:12;;;;;;;;;11.67;10.00;;;;;;;;5058620;28;46105;-47
2023/09/24 07:05:37;;;;;;;;;12.33;10.33;;;;;;;;5072579;27;47084;-49
2023/09/24 07:08:03;;;;;;;;;10.00;8.33;;;;;;;;5076656;28;45383;-51
2023/09/24 07:10:29;;;;;;;;;9.00;6.67;;;;;;;;5077103;27;45410;-49
2023/09/24 07:12:54;;;;;;;;;6.00;6.00;;;;;;;;5076718;27;45321;-51
2023/09/24 07:15:19;;;;;;;;;9.33;8.00;;;;;;;;5077505;28;45441;-49
2023/09/24 07:17:44;;;;;;;;;4.00;4.00;;;;;;;;5076301;27;45315;-49
2023/09/24 07:20:10;;;;;;;;;7.33;5.67;;;;;;;;5071437;27;45800;-48
2023/09/24 07:22:35;;;;;;;;;6.00;5.67;;;;;;;;5059677;28;45576;-50
2023/09/24 07:25:00;;;;;;;;;4.67;3.67;;;;;;;;5077098;27;45328;-49
2023/09/24 07:27:26;;;;;;;;;4.00;4.00;;;;;;;;5077233;27;45337;-52
2023/09/24 07:29:51;;;;;;;;;5.67;3.00;;;;;;;;5080206;27;45532;-49
2023/09/24 07:32:16;;;;;;;;;5.33;3.00;;;;;;;;5075819;27;45484;-49
2023/09/24 07:34:42;;;;;;;;;7.00;4.00;;;;;;;;5076843;27;46403;-51
2023/09/24 07:37:08;;;;;;;;;4.67;4.67;;;;;;;;5077816;28;45600;-50
2023/09/24 07:39:34;;;;;;;;;4.67;4.67;;;;;;;;5073841;27;45601;-65
2023/09/24 07:42:00;;;;;;;;;4.33;3.67;;;;;;;;5084094;27;45482;-64
2023/09/24 07:44:25;;;;;;;;;8.33;3.67;;;;;;;;5063820;27;46357;-65
2023/09/24 07:46:51;;;;;;;;;6.00;2.67;;;;;;;;5080601;27;45584;-65
2023/09/24 07:49:16;;;;;;;;;5.67;4.33;;;;;;;;5075371;27;45531;-64
2023/09/24 07:51:41;;;;;;;;;3.67;3.67;;;;;;;;5071707;27;45778;-64
2023/09/24 07:54:07;;;;;;;;;5.33;4.67;;;;;;;;5067765;27;46184;-59
2023/09/24 07:56:32;;;;;;;;;3.67;3.67;;;;;;;;5080599;27;45651;-59
2023/09/24 07:58:58;;;;;;;;;7.00;3.33;;;;;;;;5072772;27;45461;-59
2023/09/24 08:01:23;;;;;;;;;5.33;4.00;;;;;;;;5072750;27;45545;-64
2023/09/24 08:03:49;;;;;;;;;1.67;1.67;;;;;;;;5078053;27;47111;-62
2023/09/24 08:06:14;;;;;;;;;5.00;4.00;;;;;;;;5075831;27;45471;-61
2023/09/24 08:08:39;;;;;;;;;5.67;3.00;;;;;;;;5057431;27;45488;-61
2023/09/24 08:11:04;;;;;;;;;5.67;4.33;;;;;;;;5053740;28;45595;-59
2023/09/24 08:13:30;;;;;;;;;4.00;2.00;;;;;;;;5072181;28;46535;-60
2023/09/24 08:15:56;;;;;;;;;3.00;3.00;;;;;;;;5054399;27;45572;-59
2023/09/24 08:18:22;;;;;;;;;3.00;2.67;;;;;;;;5080731;27;45350;-61
2023/09/24 08:20:48;;;;;;;;;2.00;2.00;;;;;;;;5073385;27;45591;-60
2023/09/24 08:23:14;;;;;;;;;4.00;2.67;;;;;;;;5087522;27;46435;-60
2023/09/24 08:25:40;;;;;;;;;4.67;3.00;;;;;;;;5076392;27;45636;-60
2023/09/24 08:28:06;;;;;;;;;5.00;3.33;;;;;;;;5077847;27;45552;-59
2023/09/24 08:30:32;;;;;;;;;2.33;2.00;;;;;;;;5073235;27;45470;-59
2023/09/24 08:32:57;;;;;;;;;4.67;3.00;;;;;;;;5076373;27;45441;-59
2023/09/24 08:35:23;;;;;;;;;5.00;2.33;;;;;;;;5074134;27;45506;-59
2023/09/24 08:37:48;;;;;;;;;4.67;2.00;;;;;;;;5081917;27;46949;-60
2023/09/24 08:40:15;;;;;;;;;6.33;4.67;;;;;;;;5087848;27;45397;-60
2023/09/24 08:42:44;;;;;;;;;3.67;2.33;;;;;;;;5080110;27;47193;-61
2023/09/24 08:45:10;;;;;;;;;5.67;3.00;;;;;;;;5081308;27;45321;-63
2023/09/24 08:47:36;;;;;;;;;3.33;2.67;;;;;;;;5080764;27;45623;-64
2023/09/24 08:50:03;;;;;;;;;3.00;3.00;;;;;;;;5076849;27;45411;-59
2023/09/24 08:52:30;;;;;;;;;1.00;1.00;;;;;;;;5083296;27;46111;-59
2023/09/24 08:54:56;;;;;;;;;3.33;1.33;;;;;;;;5081563;27;45220;-61
2023/09/24 08:57:21;;;;;;;;;3.33;3.00;;;;;;;;5085818;27;45719;-59
2023/09/24 08:59:46;;;;;;;;;2.00;2.00;;;;;;;;5075543;27;45544;-59
2023/09/24 09:02:11;;;;;;;;;3.00;3.00;;;;;;;;5081499;27;45914;-59
2023/09/24 09:04:46;;;;;;;;;4.00;4.00;;;;;;;;5085621;27;47353;-59
2023/09/24 09:07:12;;;;;;;;;2.00;2.00;;;;;;;;5083217;27;45487;-59
2023/09/24 09:09:37;;;;;;;;;2.00;2.00;;;;;;;;5083721;27;45586;-59
2023/09/24 09:12:02;;;;;;;;;5.00;2.67;;;;;;;;5064173;27;47933;-59
2023/09/24 09:14:35;;;;;;;;;3.00;3.00;;;;;;;;5068644;28;45868;-59
2023/09/24 09:17:00;;;;;;;;;2.00;2.00;;;;;;;;5073753;27;45335;-59
2023/09/24 09:19:26;;;;;;;;;0.00;0.00;;;;;;;;5060068;28;45326;-58
2023/09/24 09:21:52;;;;;;;;;4.00;2.00;;;;;;;;5091944;27;46055;-64
2023/09/24 09:24:22;;;;;;;;;2.00;2.00;;;;;;;;5077623;27;45487;-59
2023/09/24 09:26:52;;;;;;;;;3.00;1.67;;;;;;;;5079755;27;45426;-59
2023/09/24 09:29:20;;;;;;;;;2.00;2.00;;;;;;;;5083927;27;45729;-63
2023/09/24 09:31:49;;;;;;;;;3.00;1.33;;;;;;;;5079089;27;45387;-62
2023/09/24 09:34:14;;;;;;;;;3.00;3.00;;;;;;;;5079599;27;45494;-71
2023/09/24 09:36:39;;;;;;;;;3.00;3.00;;;;;;;;5079731;27;45584;-64
2023/09/24 09:39:06;;;;;;;;;5.00;2.67;;;;;;;;5076927;27;45398;-63
2023/09/24 09:41:33;;;;;;;;;3.00;3.00;;;;;;;;5079243;27;46580;-65
2023/09/24 09:44:03;;;;;;;;;1.00;1.00;;;;;;;;5082201;27;45616;-63
2023/09/24 09:46:28;;;;;;;;;2.00;2.00;;;;;;;;5081856;27;45456;-67
2023/09/24 09:48:54;;;;;;;;;1.00;1.00;;;;;;;;5080075;27;45372;-60
2023/09/24 09:51:20;;;;;;;;;3.00;2.00;;;;;;;;5076850;27;47031;-60
2023/09/24 09:53:46;;;;;;;;;3.50;2.00;;;;;;;;5057615;27;45535;-59
2023/09/24 09:56:11;;;;;;;;;2.00;2.00;;;;;;;;5072513;27;45379;-59
2023/09/24 09:58:37;;;;;;;;;2.00;2.00;;;;;;;;5083309;27;45524;-54
2023/09/24 10:01:04;;;;;;;;;0.75;0.75;;;;;;;;5079526;28;45494;-62
2023/09/24 10:03:31;;;;;;;;;1.00;1.00;;;;;;;;5077280;28;45284;-52
2023/09/24 10:05:57;;;;;;;;;4.00;2.75;;;;;;;;5078784;28;45343;-51
2023/09/24 10:08:42;;;;;;;;;1.00;1.00;;;;;;;;5080832;27;45417;-58
2023/09/24 10:11:11;;;;;;;;;2.00;2.00;;;;;;;;5068472;27;45204;-50
2023/09/24 10:13:40;;;;;;;;;1.25;1.25;;;;;;;;5079879;28;45489;-56
2023/09/24 10:16:29;;;;;;;;;2.00;2.00;;;;;;;;5080082;28;45335;-58
2023/09/24 10:18:55;;;;;;;;;2.25;1.75;;;;;;;;5065129;28;45704;-47
2023/09/24 10:21:27;;;;;;;;;6.00;1.00;;;;;;;;5078383;28;45880;-49
2023/09/24 10:23:52;;;;;;;;;4.25;3.00;;;;;;;;5079520;28;45303;-53
2023/09/24 10:26:36;;;;;;;;;2.00;2.00;;;;;;;;5079222;28;45430;-48
2023/09/24 10:29:02;;;;;;;;;1.75;1.25;;;;;;;;5073085;27;45533;-50
2023/09/24 10:31:28;;;;;;;;;1.00;1.00;;;;;;;;5078791;28;46229;-60
2023/09/24 10:34:00;;;;;;;;;2.00;2.00;;;;;;;;5086642;27;45261;-51
2023/09/24 10:36:29;;;;;;;;;1.00;1.00;;;;;;;;5082250;27;45375;-48
2023/09/24 10:39:04;;;;;;;;;3.00;3.00;;;;;;;;5078263;27;45425;-55
2023/09/24 10:41:29;;;;;;;;;5.25;4.00;;;;;;;;5077994;27;46883;-57
2023/09/24 10:44:13;;;;;;;;;1.00;1.00;;;;;;;;5079104;27;45806;-57
2023/09/24 10:46:39;;;;;;;;;2.00;2.00;;;;;;;;5079299;27;45527;-53
2023/09/24 10:49:04;;;;;;;;;4.75;3.00;;;;;;;;5058208;28;45540;-54
2023/09/24 10:51:29;;;;;;;;;2.50;1.75;;;;;;;;5059348;28;48340;-53
2023/09/24 10:54:11;;;;;;;;;2.25;2.25;;;;;;;;5077775;27;45399;-49
2023/09/24 10:56:36;;;;;;;;;3.00;1.75;;;;;;;;5076219;27;45449;-50
2023/09/24 10:59:02;;;;;;;;;4.00;2.50;;;;;;;;5074660;27;45549;-52
2023/09/24 11:01:30;;;;;;;;;2.00;2.00;;;;;;;;5071362;27;46269;-49
2023/09/24 11:03:56;;;;;;;;;1.50;1.50;;;;;;;;5079073;27;45568;-48
2023/09/24 11:06:31;;;;;;;;;2.00;2.00;;;;;;;;5078774;27;45385;-51
2023/09/24 11:09:17;;;;;;;;;2.75;2.75;;;;;;;;5074688;27;45524;-51
2023/09/24 11:11:42;;;;;;;;;2.50;2.50;;;;;;;;5075029;27;46112;-53
2023/09/24 11:14:22;;;;;;;;;2.00;2.00;;;;;;;;5076770;27;45702;-52
2023/09/24 11:16:49;;;;;;;;;2.50;1.00;;;;;;;;5076933;28;45611;-53
2023/09/24 11:19:14;;;;;;;;;1.00;1.00;;;;;;;;5077097;27;45290;-52
2023/09/24 11:21:39;;;;;;;;;1.00;1.00;;;;;;;;5078789;27;45469;-51
2023/09/24 11:24:18;;;;;;;;;1.25;1.25;;;;;;;;5076567;27;45803;-52
2023/09/24 11:26:43;;;;;;;;;1.00;1.00;;;;;;;;5077846;27;45812;-51
2023/09/24 11:29:09;;;;;;;;;2.00;1.75;;;;;;;;5076404;27;45413;-52
2023/09/24 11:31:34;;;;;;;;;0.00;0.00;;;;;;;;5078213;27;46789;-52
2023/09/24 11:33:59;;;;;;;;;3.75;3.00;;;;;;;;5077087;27;45875;-52
2023/09/24 11:36:28;;;;;;;;;2.75;2.75;;;;;;;;5078982;27;45705;-52
2023/09/24 11:39:03;;;;;;;;;5.33;5.00;;;;;;;;5078473;27;45899;-53
2023/09/24 11:41:28;;;;;;;;;5.50;3.25;;;;;;;;5076555;27;46525;-50
2023/09/24 11:43:59;;;;;;;;;4.75;1.75;;;;;;;;5080900;27;45240;-53
2023/09/24 11:46:28;;;;;;;;;2.00;2.00;;;;;;;;5076156;28;46380;-51
2023/09/24 11:48:55;;;;;;;;;1.25;1.25;;;;;;;;5077550;27;45532;-52
2023/09/24 11:51:21;;;;;;;;;3.00;1.25;;;;;;;;5078275;27;47312;-53
2023/09/24 11:53:46;;;;;;;;;2.00;2.00;;;;;;;;5081537;28;45367;-51
2023/09/24 11:56:11;;;;;;;;;5.50;1.75;;;;;;;;5082892;27;45355;-53
2023/09/24 11:58:37;;;;;;;;;1.75;1.75;;;;;;;;5082117;27;45768;-52
2023/09/24 12:01:04;;;;;;;;;3.00;3.00;;;;;;;;5080399;27;46192;-52
2023/09/24 12:03:29;;;;;;;;;1.50;1.50;;;;;;;;5080900;28;45338;-50
2023/09/24 12:05:54;;;;;;;;;1.00;1.00;;;;;;;;5079604;27;45650;-53
2023/09/24 12:08:19;;;;;;;;;3.00;2.00;;;;;;;;5080731;27;45544;-52
2023/09/24 12:10:50;;;;;;;;;4.00;3.00;;;;;;;;5080206;27;45413;-53
2023/09/24 12:13:16;;;;;;;;;2.00;2.00;;;;;;;;5080391;27;45674;-51
2023/09/24 12:15:41;;;;;;;;;3.00;2.25;;;;;;;;5079771;27;45455;-52
2023/09/24 12:18:07;;;;;;;;;1.75;1.75;;;;;;;;5080392;27;45462;-51
2023/09/24 12:20:33;;;;;;;;;2.75;2.75;;;;;;;;5079635;27;45540;-51
2023/09/24 12:23:00;;;;;;;;;1.00;1.00;;;;;;;;5080422;27;45483;-51
2023/09/24 12:25:25;;;;;;;;;1.00;1.00;;;;;;;;5085988;27;45445;-53
2023/09/24 12:27:50;;;;;;;;;2.00;2.00;;;;;;;;5080117;27;45470;-55
2023/09/24 12:30:16;;;;;;;;;4.00;1.00;;;;;;;;5077365;27;45938;-52
2023/09/24 12:32:41;;;;;;;;;1.00;1.00;;;;;;;;5079077;27;47349;-50
2023/09/24 12:35:07;;;;;;;;;2.25;2.25;;;;;;;;5088411;27;45470;-51
2023/09/24 12:37:33;;;;;;;;;1.75;1.75;;;;;;;;5081088;27;45796;-51
2023/09/24 12:39:59;;;;;;;;;0.50;0.50;;;;;;;;5083005;27;47126;-54
2023/09/24 12:42:30;;;;;;;;;1.00;1.00;;;;;;;;5059050;28;45473;-52
2023/09/24 12:44:56;;;;;;;;;2.75;1.00;;;;;;;;5083055;27;45551;-50
2023/09/24 12:47:21;;;;;;;;;2.00;1.00;;;;;;;;5078976;27;45593;-49
2023/09/24 12:49:46;;;;;;;;;2.00;2.00;;;;;;;;5081518;27;45707;-49
2023/09/24 12:52:12;;;;;;;;;3.00;2.00;;;;;;;;5077240;28;45433;-51
2023/09/24 12:54:37;;;;;;;;;2.00;2.00;;;;;;;;5081490;28;45394;-52
2023/09/24 12:57:03;;;;;;;;;2.25;2.25;;;;;;;;5075695;27;45782;-52
2023/09/24 12:59:28;;;;;;;;;2.00;2.00;;;;;;;;5083118;27;46221;-53
2023/09/24 13:01:53;;;;;;;;;2.00;1.00;;;;;;;;5085578;27;45709;-51
2023/09/24 13:04:18;;;;;;;;;2.00;2.00;;;;;;;;5076045;27;45307;-52
2023/09/24 13:06:44;;;;;;;;;1.00;1.00;;;;;;;;5085330;27;46668;-53
2023/09/24 13:09:10;;;;;;;;;3.50;2.00;;;;;;;;5084722;27;46135;-51
2023/09/24 13:11:35;;;;;;;;;3.50;2.75;;;;;;;;5079765;27;45399;-52
2023/09/24 13:14:00;;;;;;;;;2.00;1.75;;;;;;;;5082644;27;45446;-52
2023/09/24 13:16:25;;;;;;;;;0.00;0.00;;;;;;;;5077439;27;45337;-50
2023/09/24 13:18:51;;;;;;;;;0.75;0.75;;;;;;;;5080562;27;46283;-49